Time;durP1;ratioP1;P1;durP2;ratioP2;P2;SDS_P1;SDS_P2;PMS_P1;PMS_P2;Temp;Humidity;BMP_temperature;BMP_pressure;BME280_temperature;BME280_humidity;BME280_pressure;Samples;Min_cycle;Max_cycle;Signal;HPM_P1;HPM_P2
2021/11/19 00:01:29;;;;;;;44.03;26.73;;;12.50;99.90;;;;;;5083840;28;20205;-75
2021/11/19 00:03:56;;;;;;;41.35;24.25;;;12.50;99.90;;;;;;5084202;28;20729;-74
2021/11/19 00:06:25;;;;;;;46.45;23.40;;;12.50;99.90;;;;;;5077571;28;20273;-75
2021/11/19 00:08:52;;;;;;;45.17;25.90;;;12.50;99.90;;;;;;5074464;28;20194;-74
2021/11/19 00:11:22;;;;;;;38.85;23.02;;;12.50;99.90;;;;;;5075412;28;20202;-75
2021/11/19 00:13:51;;;;;;;45.72;25.92;;;12.50;99.90;;;;;;5077841;28;20729;-73
2021/11/19 00:16:19;;;;;;;41.08;24.73;;;12.60;99.90;;;;;;5089205;28;20318;-75
2021/11/19 00:18:47;;;;;;;48.95;27.42;;;12.60;99.90;;;;;;5084347;28;20214;-74
2021/11/19 00:21:14;;;;;;;43.45;23.92;;;12.50;99.90;;;;;;5089765;28;20252;-74
2021/11/19 00:23:43;;;;;;;53.50;27.83;;;12.60;99.90;;;;;;5077975;28;20196;-75
2021/11/19 00:26:10;;;;;;;48.95;26.52;;;12.50;99.90;;;;;;5088529;28;20228;-74
2021/11/19 00:28:38;;;;;;;45.70;26.23;;;12.60;99.90;;;;;;5076045;28;20216;-73
2021/11/19 00:31:07;;;;;;;37.53;25.17;;;12.60;99.90;;;;;;5080021;28;20204;-74
2021/11/19 00:33:35;;;;;;;47.33;28.13;;;12.50;99.90;;;;;;5092651;28;20215;-74
2021/11/19 00:36:02;;;;;;;38.92;23.33;;;12.50;99.90;;;;;;5091755;28;20292;-75
2021/11/19 00:38:29;;;;;;;47.00;27.50;;;12.50;99.90;;;;;;5073851;28;20245;-75
2021/11/19 00:40:59;;;;;;;42.90;27.00;;;12.50;99.90;;;;;;5084233;28;20208;-75
2021/11/19 00:43:27;;;;;;;40.92;24.83;;;12.50;99.90;;;;;;5078351;28;20202;-75
2021/11/19 00:45:55;;;;;;;43.60;25.88;;;12.50;99.90;;;;;;5085759;28;20252;-75
2021/11/19 00:48:25;;;;;;;43.83;26.48;;;12.50;99.90;;;;;;5081921;28;20204;-75
2021/11/19 00:50:54;;;;;;;41.70;24.50;;;12.50;99.90;;;;;;5092152;28;20201;-75
2021/11/19 00:53:22;;;;;;;33.97;23.13;;;12.50;99.90;;;;;;5076501;28;20321;-76
2021/11/19 00:55:49;;;;;;;40.92;23.90;;;12.50;99.90;;;;;;5087392;28;20225;-74
2021/11/19 00:58:18;;;;;;;38.03;22.52;;;12.60;99.90;;;;;;5087313;28;20308;-75
2021/11/19 01:00:49;;;;;;;40.70;23.45;;;12.50;99.90;;;;;;5089423;28;20603;-73
2021/11/19 01:03:17;;;;;;;45.38;23.20;;;12.60;99.90;;;;;;5080622;28;20297;-76
2021/11/19 01:05:46;;;;;;;35.05;23.27;;;12.60;99.90;;;;;;5081624;28;20254;-75
2021/11/19 01:08:13;;;;;;;31.17;21.52;;;12.60;99.90;;;;;;5081626;28;20636;-75
2021/11/19 01:10:43;;;;;;;31.73;20.30;;;12.60;99.90;;;;;;5092103;28;20288;-76
2021/11/19 01:13:10;;;;;;;38.40;22.20;;;12.60;99.90;;;;;;5078064;28;20206;-75
2021/11/19 01:15:41;;;;;;;25.83;19.10;;;12.70;99.90;;;;;;5092852;28;20239;-75
2021/11/19 01:18:11;;;;;;;33.80;21.10;;;12.60;99.90;;;;;;5087431;28;20227;-74
2021/11/19 01:20:41;;;;;;;36.20;20.15;;;12.60;99.90;;;;;;5084429;28;20234;-74
2021/11/19 01:23:12;;;;;;;26.20;18.20;;;12.50;99.90;;;;;;5083472;28;20250;-73
2021/11/19 01:25:43;;;;;;;30.08;18.40;;;12.70;99.90;;;;;;5084711;28;20218;-75
2021/11/19 01:28:11;;;;;;;26.92;18.42;;;12.60;99.90;;;;;;5086438;28;20246;-73
2021/11/19 01:30:42;;;;;;;28.20;18.83;;;12.70;99.90;;;;;;5094668;28;20237;-72
2021/11/19 01:33:10;;;;;;;33.85;19.00;;;12.70;99.90;;;;;;5095282;28;20210;-73
2021/11/19 01:35:38;;;;;;;25.75;18.20;;;12.60;99.90;;;;;;5091185;28;20691;-74
2021/11/19 01:38:06;;;;;;;37.45;17.58;;;12.60;99.90;;;;;;5094071;28;20262;-76
2021/11/19 01:40:37;;;;;;;28.65;17.20;;;12.60;99.90;;;;;;5089581;28;20560;-74
2021/11/19 01:43:08;;;;;;;21.02;15.77;;;12.60;99.90;;;;;;5089309;28;20265;-74
2021/11/19 01:45:38;;;;;;;28.83;16.08;;;12.70;99.90;;;;;;5080129;28;20221;-74
2021/11/19 01:48:08;;;;;;;29.45;18.48;;;12.70;99.90;;;;;;5099836;28;20298;-74
2021/11/19 01:50:39;;;;;;;29.40;18.50;;;12.60;99.90;;;;;;5098193;28;20200;-74
2021/11/19 01:53:11;;;;;;;24.13;16.38;;;12.70;99.90;;;;;;5098010;28;20298;-73
2021/11/19 01:55:42;;;;;;;28.13;16.38;;;12.70;99.90;;;;;;5100986;28;20229;-74
2021/11/19 01:58:13;;;;;;;27.38;17.25;;;12.70;99.90;;;;;;5095458;28;20239;-74
2021/11/19 02:00:43;;;;;;;26.05;16.85;;;12.70;99.90;;;;;;5097499;28;20296;-75
2021/11/19 02:03:13;;;;;;;26.13;16.48;;;12.60;99.90;;;;;;5095420;28;20207;-74
2021/11/19 02:05:44;;;;;;;21.20;15.23;;;12.60;99.90;;;;;;5099170;28;20312;-74
2021/11/19 02:08:13;;;;;;;24.35;17.38;;;12.60;99.90;;;;;;5093311;28;20595;-75
2021/11/19 02:10:52;;;;;;;25.80;17.45;;;12.60;99.90;;;;;;5093636;28;20240;-75
2021/11/19 02:13:25;;;;;;;28.02;16.48;;;12.60;99.90;;;;;;5096229;28;20683;-76
2021/11/19 02:15:55;;;;;;;25.75;18.23;;;12.60;99.90;;;;;;5100071;28;20246;-74
2021/11/19 02:18:25;;;;;;;31.88;19.23;;;12.60;99.90;;;;;;5098103;28;20201;-74
2021/11/19 02:20:56;;;;;;;27.52;18.15;;;12.60;99.90;;;;;;5103936;28;20643;-74
2021/11/19 02:23:31;;;;;;;24.92;17.33;;;12.60;99.90;;;;;;5099748;28;20271;-74
2021/11/19 02:26:04;;;;;;;31.00;18.70;;;12.60;99.90;;;;;;5104402;28;20623;-74
2021/11/19 02:28:34;;;;;;;34.33;18.02;;;12.60;99.90;;;;;;5099169;28;20634;-73
2021/11/19 02:31:09;;;;;;;34.17;18.63;;;12.60;99.90;;;;;;5093847;28;20288;-74
2021/11/19 02:33:39;;;;;;;34.67;19.13;;;12.70;99.90;;;;;;5102814;28;20200;-74
2021/11/19 02:36:09;;;;;;;33.35;18.17;;;12.70;99.90;;;;;;5100294;28;20352;-75
2021/11/19 02:38:41;;;;;;;26.92;17.38;;;12.70;99.90;;;;;;5096130;28;20280;-76
2021/11/19 02:41:10;;;;;;;25.02;17.95;;;12.70;99.90;;;;;;5094409;28;20258;-76
2021/11/19 02:43:41;;;;;;;29.42;18.52;;;12.80;99.90;;;;;;5097375;28;20241;-74
2021/11/19 02:46:08;;;;;;;28.08;17.52;;;12.80;99.90;;;;;;5100333;28;20225;-76
2021/11/19 02:48:37;;;;;;;25.77;17.67;;;12.80;99.90;;;;;;5097508;28;20227;-75
2021/11/19 02:51:11;;;;;;;24.92;17.05;;;12.80;99.90;;;;;;5103182;28;20740;-75
2021/11/19 02:53:38;;;;;;;25.98;15.93;;;12.80;99.90;;;;;;5100765;28;20288;-75
2021/11/19 02:56:06;;;;;;;23.52;16.23;;;12.90;99.90;;;;;;5093661;28;20305;-73
2021/11/19 02:58:36;;;;;;;22.48;16.23;;;12.90;99.90;;;;;;5103511;28;20201;-75
2021/11/19 03:01:07;;;;;;;23.05;16.45;;;12.90;99.90;;;;;;5096778;28;20198;-76
2021/11/19 03:03:35;;;;;;;24.25;15.38;;;13.00;99.90;;;;;;5098864;28;20712;-76
2021/11/19 03:06:03;;;;;;;29.25;17.05;;;12.90;99.90;;;;;;5095827;28;20326;-75
2021/11/19 03:08:31;;;;;;;24.73;15.15;;;12.90;99.90;;;;;;5101535;27;20285;-75
2021/11/19 03:10:59;;;;;;;23.73;14.48;;;12.90;99.90;;;;;;5098106;28;20296;-74
2021/11/19 03:13:28;;;;;;;26.42;14.93;;;12.90;99.90;;;;;;5096802;28;20193;-76
2021/11/19 03:15:57;;;;;;;25.80;15.32;;;12.90;99.90;;;;;;5099837;28;20228;-74
2021/11/19 03:18:26;;;;;;;24.95;16.17;;;12.90;99.90;;;;;;5098058;28;20198;-75
2021/11/19 03:21:02;;;;;;;23.88;15.27;;;13.00;99.90;;;;;;5096387;28;20305;-74
2021/11/19 03:23:31;;;;;;;25.65;15.63;;;13.00;99.90;;;;;;5098711;28;20251;-76
2021/11/19 03:26:00;;;;;;;24.98;15.13;;;13.00;99.90;;;;;;5098308;28;20235;-74
2021/11/19 03:28:28;;;;;;;21.25;15.18;;;13.00;99.90;;;;;;5105090;28;20264;-71
2021/11/19 03:30:59;;;;;;;18.05;13.40;;;13.00;99.90;;;;;;5100039;28;20574;-72
2021/11/19 03:33:31;;;;;;;22.60;14.23;;;13.00;99.90;;;;;;5089495;28;20236;-73
2021/11/19 03:35:58;;;;;;;21.38;14.90;;;13.00;99.90;;;;;;5096061;28;20289;-74
2021/11/19 03:38:28;;;;;;;19.50;14.27;;;13.00;99.90;;;;;;5093644;28;20192;-73
2021/11/19 03:40:58;;;;;;;16.63;12.73;;;13.00;99.90;;;;;;5101915;28;20284;-76
2021/11/19 03:43:27;;;;;;;17.90;12.38;;;13.00;99.90;;;;;;5094534;28;20204;-75
2021/11/19 03:45:57;;;;;;;21.38;14.00;;;13.00;99.90;;;;;;5092327;28;20325;-74
2021/11/19 03:48:26;;;;;;;22.55;13.68;;;13.00;99.90;;;;;;5094699;28;20285;-74
2021/11/19 03:50:56;;;;;;;23.25;14.95;;;13.10;99.90;;;;;;5102186;28;20307;-74
2021/11/19 03:53:25;;;;;;;21.58;13.23;;;13.10;99.90;;;;;;5092674;28;20659;-75
2021/11/19 03:55:54;;;;;;;21.90;14.43;;;13.10;99.90;;;;;;5093666;28;20305;-76
2021/11/19 03:58:24;;;;;;;21.92;15.10;;;13.10;99.90;;;;;;5092766;28;20288;-75
2021/11/19 04:01:00;;;;;;;17.70;13.07;;;13.10;99.90;;;;;;5093109;28;20525;-73
2021/11/19 04:03:29;;;;;;;21.67;13.43;;;13.10;99.90;;;;;;5092856;28;20295;-73
2021/11/19 04:05:57;;;;;;;20.23;12.93;;;13.10;99.90;;;;;;5091755;28;20224;-75
2021/11/19 04:08:25;;;;;;;23.70;15.68;;;13.10;99.90;;;;;;5092576;28;20206;-73
2021/11/19 04:10:53;;;;;;;17.25;13.00;;;13.10;99.90;;;;;;5092372;28;20258;-74
2021/11/19 04:13:20;;;;;;;25.10;13.55;;;13.20;99.90;;;;;;5092596;28;20206;-74
2021/11/19 04:15:54;;;;;;;25.73;12.70;;;13.20;99.90;;;;;;5091885;28;20229;-74
2021/11/19 04:18:22;;;;;;;18.73;12.45;;;13.20;99.90;;;;;;5083643;28;20747;-74
2021/11/19 04:20:52;;;;;;;20.45;12.80;;;13.20;99.90;;;;;;5092718;28;20254;-75
2021/11/19 04:23:19;;;;;;;18.17;11.65;;;13.20;99.90;;;;;;5092708;28;20217;-74
2021/11/19 04:25:47;;;;;;;17.08;11.32;;;13.20;99.90;;;;;;5091631;28;20286;-74
2021/11/19 04:28:14;;;;;;;18.40;12.55;;;13.20;99.90;;;;;;5095295;28;20218;-75
2021/11/19 04:30:44;;;;;;;18.42;11.48;;;13.10;99.90;;;;;;5096539;28;20723;-72
2021/11/19 04:33:12;;;;;;;22.23;12.15;;;13.10;99.90;;;;;;5096538;28;20716;-75
2021/11/19 04:35:39;;;;;;;17.13;11.30;;;13.10;99.90;;;;;;5095214;28;20257;-72
2021/11/19 04:38:07;;;;;;;16.95;13.05;;;13.10;99.90;;;;;;5096354;28;20270;-72
2021/11/19 04:40:36;;;;;;;20.20;11.75;;;13.10;99.90;;;;;;5096080;28;20300;-74
2021/11/19 04:43:04;;;;;;;17.98;11.38;;;13.10;99.90;;;;;;5096347;28;20242;-74
2021/11/19 04:45:32;;;;;;;21.52;13.15;;;13.10;99.90;;;;;;5095081;28;20198;-75
2021/11/19 04:47:59;;;;;;;23.00;13.10;;;13.20;99.90;;;;;;5086637;28;20694;-75
2021/11/19 04:50:29;;;;;;;16.95;10.68;;;13.10;99.90;;;;;;5075761;28;20609;-74
2021/11/19 04:52:57;;;;;;;18.30;12.35;;;13.20;99.90;;;;;;5076058;28;20627;-76
2021/11/19 04:55:28;;;;;;;18.65;11.48;;;13.20;99.90;;;;;;5074573;28;20252;-75
2021/11/19 04:57:56;;;;;;;16.58;10.73;;;13.10;99.90;;;;;;5078110;28;20241;-75
2021/11/19 05:00:27;;;;;;;22.40;12.65;;;13.20;99.90;;;;;;5075929;28;20221;-75
2021/11/19 05:02:54;;;;;;;23.83;11.65;;;13.20;99.90;;;;;;5075712;28;20193;-74
2021/11/19 05:05:23;;;;;;;22.48;11.82;;;13.20;99.90;;;;;;5074762;28;20195;-72
2021/11/19 05:07:50;;;;;;;15.38;11.95;;;13.20;99.90;;;;;;5075842;28;20224;-73
2021/11/19 05:10:18;;;;;;;18.55;10.82;;;13.20;99.90;;;;;;5075463;28;20237;-74
2021/11/19 05:12:50;;;;;;;14.73;10.70;;;13.20;99.90;;;;;;5075504;28;20214;-73
2021/11/19 05:15:17;;;;;;;18.92;11.50;;;13.30;99.90;;;;;;5078293;28;20273;-73
2021/11/19 05:17:44;;;;;;;21.30;11.70;;;13.20;99.90;;;;;;5086722;28;20226;-75
2021/11/19 05:20:14;;;;;;;22.60;12.50;;;13.20;99.90;;;;;;5095956;28;20222;-72
2021/11/19 05:22:42;;;;;;;21.52;11.18;;;13.30;99.90;;;;;;5095535;28;20576;-72
2021/11/19 05:25:14;;;;;;;11.35;10.18;;;13.20;99.90;;;;;;5094923;28;20193;-74
2021/11/19 05:27:42;;;;;;;15.02;10.70;;;13.30;99.90;;;;;;5095577;28;20573;-75
2021/11/19 05:30:12;;;;;;;15.80;11.68;;;13.20;99.90;;;;;;5104837;28;20193;-73
2021/11/19 05:32:39;;;;;;;13.80;11.23;;;13.20;99.90;;;;;;5101210;28;20208;-75
2021/11/19 05:35:14;;;;;;;18.23;12.00;;;13.20;99.90;;;;;;5094748;28;20213;-75
2021/11/19 05:37:42;;;;;;;17.25;12.88;;;13.20;99.90;;;;;;5095358;28;20752;-75
2021/11/19 05:40:12;;;;;;;20.15;11.85;;;13.20;99.90;;;;;;5094372;28;20317;-74
2021/11/19 05:42:40;;;;;;;17.75;13.75;;;13.10;99.90;;;;;;5090070;28;20209;-76
2021/11/19 07:17:43;;;;;;;28.88;12.60;;;13.20;99.90;;;;;;5080158;22;20234;-71
2021/11/19 07:20:13;;;;;;;23.17;12.02;;;13.20;99.90;;;;;;5072132;28;20217;-70
2021/11/19 07:22:42;;;;;;;20.90;12.30;;;13.20;99.90;;;;;;5071823;28;20208;-72
2021/11/19 07:25:12;;;;;;;21.20;12.02;;;13.20;99.90;;;;;;5071389;28;20252;-71
2021/11/19 07:27:40;;;;;;;17.00;11.07;;;13.20;99.90;;;;;;5053114;28;20262;-73
2021/11/19 07:30:10;;;;;;;19.40;12.30;;;13.20;99.90;;;;;;5054856;28;20581;-74
2021/11/19 07:32:37;;;;;;;19.73;12.95;;;13.20;99.90;;;;;;5052273;28;20704;-71
2021/11/19 07:35:08;;;;;;;17.40;11.82;;;13.20;99.90;;;;;;5047936;28;20207;-72
2021/11/19 07:37:36;;;;;;;14.93;10.98;;;13.20;99.90;;;;;;5049118;28;20590;-71
2021/11/19 07:40:05;;;;;;;20.50;14.07;;;13.20;99.90;;;;;;5040300;28;20204;-71
2021/11/19 07:42:33;;;;;;;20.58;13.10;;;13.20;99.90;;;;;;5045220;28;20199;-72
2021/11/19 07:45:01;;;;;;;14.02;10.68;;;13.30;99.90;;;;;;5050367;28;20204;-69
2021/11/19 07:47:28;;;;;;;15.98;11.02;;;13.30;99.90;;;;;;5050322;28;20223;-72
2021/11/19 07:49:56;;;;;;;14.45;11.23;;;13.40;99.90;;;;;;5046019;28;20295;-71
2021/11/19 07:52:25;;;;;;;12.98;10.10;;;13.30;99.90;;;;;;5037849;28;20200;-71
2021/11/19 07:54:52;;;;;;;13.82;11.40;;;13.40;99.90;;;;;;5036803;28;20232;-71
2021/11/19 07:57:19;;;;;;;20.80;12.73;;;13.40;99.90;;;;;;5040543;28;20215;-70
2021/11/19 07:59:46;;;;;;;18.02;11.35;;;13.40;99.90;;;;;;5037969;28;20196;-71
2021/11/19 08:02:13;;;;;;;14.20;10.30;;;13.40;99.90;;;;;;5045769;28;20237;-71
2021/11/19 08:04:41;;;;;;;16.60;11.27;;;13.50;99.90;;;;;;5056108;28;20196;-72
2021/11/19 08:07:10;;;;;;;17.15;11.95;;;13.50;99.90;;;;;;5054240;28;20620;-70
2021/11/19 08:09:38;;;;;;;12.07;10.73;;;13.40;99.90;;;;;;5054895;28;20202;-72
2021/11/19 08:12:06;;;;;;;19.30;13.10;;;13.40;99.90;;;;;;5054326;28;20235;-71
2021/11/19 08:14:33;;;;;;;17.50;12.70;;;13.40;99.90;;;;;;5054646;28;20294;-71
2021/11/19 08:17:02;;;;;;;15.50;10.80;;;13.40;99.90;;;;;;5046552;28;20785;-71
2021/11/19 08:19:31;;;;;;;15.32;10.00;;;13.40;99.90;;;;;;5054929;28;20261;-71
2021/11/19 08:22:00;;;;;;;17.10;10.32;;;13.40;99.90;;;;;;5055277;28;20277;-71
2021/11/19 08:24:29;;;;;;;15.30;10.55;;;13.40;99.90;;;;;;5052101;28;20283;-71
2021/11/19 08:27:00;;;;;;;17.33;11.93;;;13.40;99.90;;;;;;5051088;28;20254;-72
2021/11/19 08:29:31;;;;;;;16.42;10.77;;;13.50;99.90;;;;;;5052544;28;20215;-72
2021/11/19 08:31:59;;;;;;;17.83;11.70;;;13.50;99.90;;;;;;5047231;28;20250;-72
2021/11/19 08:34:27;;;;;;;15.40;10.35;;;13.50;99.90;;;;;;5053556;28;20691;-71
2021/11/19 08:36:54;;;;;;;15.35;9.93;;;13.40;99.90;;;;;;5044167;28;20298;-71
2021/11/19 08:39:23;;;;;;;15.05;9.73;;;13.50;99.90;;;;;;5048484;28;20238;-71
2021/11/19 08:41:51;;;;;;;11.93;10.57;;;13.50;99.90;;;;;;5055150;28;20234;-73
2021/11/19 08:44:20;;;;;;;18.73;12.45;;;13.50;99.90;;;;;;5051602;28;20575;-72
2021/11/19 08:46:49;;;;;;;27.52;12.93;;;13.50;99.90;;;;;;5047679;28;20224;-72
2021/11/19 08:49:22;;;;;;;14.52;11.35;;;13.60;99.90;;;;;;5047736;28;20727;-73
2021/11/19 08:51:49;;;;;;;14.07;10.98;;;13.40;99.90;;;;;;5037487;28;20226;-74
2021/11/19 08:54:17;;;;;;;18.20;10.23;;;13.40;99.90;;;;;;5045078;28;20208;-72
2021/11/19 08:56:47;;;;;;;16.00;10.15;;;13.50;99.90;;;;;;5049487;28;20556;-71
2021/11/19 08:59:14;;;;;;;13.50;10.82;;;13.50;99.90;;;;;;5054154;28;20290;-70
2021/11/19 09:01:48;;;;;;;16.38;10.70;;;13.50;99.90;;;;;;5055250;28;20618;-71
2021/11/19 09:04:16;;;;;;;19.02;11.70;;;13.50;99.90;;;;;;5049366;28;20716;-72
2021/11/19 09:06:44;;;;;;;20.90;13.10;;;13.60;99.90;;;;;;5053958;28;20230;-72
2021/11/19 09:09:12;;;;;;;13.20;10.35;;;13.50;99.90;;;;;;5054159;28;20281;-71
2021/11/19 09:11:41;;;;;;;21.45;10.70;;;13.60;99.90;;;;;;5047226;28;20230;-71
2021/11/19 09:14:09;;;;;;;16.95;12.00;;;13.60;99.90;;;;;;5047770;28;20204;-70
2021/11/19 09:16:40;;;;;;;22.67;10.60;;;13.70;99.90;;;;;;5053558;28;20287;-74
2021/11/19 09:19:29;;;;;;;19.38;11.30;;;13.70;99.90;;;;;;5054468;28;20242;-73
2021/11/19 09:22:05;;;;;;;21.80;11.23;;;13.60;99.90;;;;;;5051537;28;20689;-73
2021/11/19 09:24:34;;;;;;;15.30;11.55;;;13.60;99.90;;;;;;5053510;28;20191;-73
2021/11/19 09:27:08;;;;;;;13.90;10.55;;;13.60;99.90;;;;;;5053760;28;20224;-72
2021/11/19 09:29:37;;;;;;;11.65;10.45;;;13.60;99.90;;;;;;5055733;28;20202;-73
2021/11/19 09:32:06;;;;;;;19.15;10.77;;;13.70;99.90;;;;;;5054275;28;20210;-72
2021/11/19 09:34:37;;;;;;;18.05;10.50;;;13.70;99.90;;;;;;5047248;28;20611;-74
2021/11/19 09:37:05;;;;;;;17.08;11.23;;;13.70;99.90;;;;;;5046491;28;20671;-72
2021/11/19 09:39:32;;;;;;;20.63;11.30;;;13.60;99.90;;;;;;5048769;28;20203;-72
2021/11/19 09:42:07;;;;;;;14.93;10.80;;;13.70;99.90;;;;;;5051505;28;20582;-72
2021/11/19 09:45:22;;;;;;;16.67;11.27;;;13.70;99.90;;;;;;5052479;28;20602;-72
2021/11/19 09:48:15;;;;;;;22.85;11.20;;;13.60;99.90;;;;;;5049431;28;20291;-72
2021/11/19 09:51:09;;;;;;;19.15;11.85;;;13.70;99.90;;;;;;5048853;28;20257;-72
2021/11/19 09:54:12;;;;;;;16.92;11.57;;;13.60;99.90;;;;;;5047719;28;20203;-72
2021/11/19 09:57:01;;;;;;;17.08;11.95;;;13.60;99.90;;;;;;5045269;28;20223;-71
2021/11/19 09:59:35;;;;;;;24.85;11.82;;;13.60;99.90;;;;;;5052628;28;20199;-71
2021/11/19 10:02:32;;;;;;;27.88;12.88;;;13.70;99.90;;;;;;5053206;28;20520;-71
2021/11/19 10:05:35;;;;;;;22.77;12.80;;;13.70;99.90;;;;;;5051731;28;20196;-74
2021/11/19 10:08:32;;;;;;;18.45;13.10;;;13.70;99.90;;;;;;5062733;28;20211;-72
2021/11/19 10:11:08;;;;;;;18.98;11.93;;;13.70;99.90;;;;;;5037131;28;20663;-73
2021/11/19 10:14:11;;;;;;;20.58;11.95;;;13.70;99.90;;;;;;5048331;28;20207;-72
2021/11/19 10:16:49;;;;;;;20.00;12.25;;;13.80;99.90;;;;;;5047449;28;20234;-71
2021/11/19 10:19:20;;;;;;;17.33;11.50;;;13.80;99.90;;;;;;5053497;28;20710;-72
2021/11/19 10:21:54;;;;;;;21.35;13.15;;;13.70;99.90;;;;;;5049556;28;20710;-73
2021/11/19 10:24:50;;;;;;;26.25;12.05;;;13.70;99.90;;;;;;5047436;28;20231;-71
2021/11/19 10:27:21;;;;;;;18.15;12.68;;;13.80;99.90;;;;;;5045356;28;20674;-72
2021/11/19 10:29:52;;;;;;;15.05;12.38;;;13.70;99.90;;;;;;5053228;28;20196;-72
2021/11/19 10:32:22;;;;;;;19.50;12.82;;;13.70;99.90;;;;;;5045670;28;20230;-72
2021/11/19 10:34:57;;;;;;;20.45;11.30;;;13.70;99.90;;;;;;5052982;28;20556;-71
2021/11/19 10:38:00;;;;;;;13.27;10.20;;;13.70;99.90;;;;;;5041966;28;20215;-71
2021/11/19 10:41:18;;;;;;;16.13;10.95;;;13.90;99.90;;;;;;5019232;28;20210;-71
2021/11/19 10:44:12;;;;;;;15.15;10.18;;;13.80;99.90;;;;;;5041160;28;20242;-73
2021/11/19 10:47:17;;;;;;;17.13;10.50;;;13.80;99.90;;;;;;5041689;28;20230;-72
2021/11/19 10:50:09;;;;;;;16.75;9.93;;;13.80;99.90;;;;;;5046678;28;20238;-72
2021/11/19 10:53:09;;;;;;;23.67;12.18;;;13.90;99.90;;;;;;5051085;28;20200;-72
2021/11/19 10:56:14;;;;;;;11.43;9.90;;;13.90;99.90;;;;;;5047137;28;20660;-71
2021/11/19 10:58:54;;;;;;;19.15;9.65;;;14.00;99.90;;;;;;5047057;28;20195;-73
2021/11/19 11:01:36;;;;;;;13.07;9.55;;;14.10;99.90;;;;;;5051128;28;20192;-74
2021/11/19 11:04:11;;;;;;;16.58;9.02;;;14.10;99.90;;;;;;5049179;28;20201;-72
2021/11/19 11:06:42;;;;;;;19.35;9.70;;;14.30;99.90;;;;;;5045549;28;20310;-70
2021/11/19 11:09:23;;;;;;;10.85;7.97;;;14.20;99.90;;;;;;5052924;28;20216;-73
2021/11/19 11:11:58;;;;;;;12.57;8.82;;;14.30;99.90;;;;;;5052303;28;20200;-72
2021/11/19 11:14:31;;;;;;;16.92;9.77;;;14.50;99.90;;;;;;5042575;28;20207;-73
2021/11/19 11:17:23;;;;;;;13.35;8.75;;;14.50;99.90;;;;;;5044999;28;20228;-72
2021/11/19 11:19:52;;;;;;;8.65;6.80;;;14.60;99.90;;;;;;5050420;28;20196;-72
2021/11/19 11:22:25;;;;;;;13.60;6.75;;;14.50;99.90;;;;;;5050903;28;20195;-73
2021/11/19 11:24:55;;;;;;;9.90;7.20;;;14.60;99.90;;;;;;5053260;28;20214;-72
2021/11/19 11:27:41;;;;;;;10.43;6.47;;;14.70;99.90;;;;;;5052405;28;20273;-74
2021/11/19 11:30:12;;;;;;;15.98;6.55;;;14.80;99.90;;;;;;5052477;28;20207;-73
2021/11/19 11:33:05;;;;;;;8.27;5.85;;;14.80;99.90;;;;;;5053007;28;20204;-72
2021/11/19 11:35:40;;;;;;;15.43;8.10;;;14.80;99.90;;;;;;5046599;28;20200;-72
2021/11/19 11:38:24;;;;;;;11.30;6.55;;;14.70;99.90;;;;;;5052155;28;20261;-74
2021/11/19 11:41:14;;;;;;;10.73;5.68;;;14.70;99.90;;;;;;5047205;28;20326;-72
2021/11/19 11:43:44;;;;;;;8.38;5.78;;;14.80;99.90;;;;;;5041231;28;20257;-73
2021/11/19 11:46:23;;;;;;;14.32;6.90;;;14.80;99.90;;;;;;5051659;28;20232;-72
2021/11/19 11:49:16;;;;;;;13.95;6.15;;;14.90;99.90;;;;;;5045998;28;20328;-74
2021/11/19 11:51:56;;;;;;;8.23;6.60;;;14.80;99.90;;;;;;5048135;28;20215;-74
2021/11/19 11:54:29;;;;;;;9.52;5.50;;;14.80;99.90;;;;;;5046177;28;20214;-74
2021/11/19 11:57:39;;;;;;;15.55;6.45;;;14.80;99.90;;;;;;5052024;28;20223;-72
2021/11/19 12:00:10;;;;;;;12.48;4.60;;;14.60;99.90;;;;;;5000352;28;20297;-72
2021/11/19 12:02:49;;;;;;;7.15;3.78;;;14.70;99.90;;;;;;4991120;28;20606;-73
2021/11/19 12:05:33;;;;;;;11.52;4.95;;;14.80;99.90;;;;;;5026453;28;20211;-75
2021/11/19 12:08:38;;;;;;;9.40;4.80;;;14.70;99.90;;;;;;5050289;28;20216;-72
2021/11/19 12:11:41;;;;;;;11.85;5.35;;;14.60;99.90;;;;;;4990987;28;20258;-75
2021/11/19 12:14:21;;;;;;;7.88;5.00;;;14.60;99.90;;;;;;5050142;28;20303;-75
2021/11/19 12:17:05;;;;;;;10.02;4.28;;;14.70;99.90;;;;;;5037146;28;20285;-72
2021/11/19 12:19:39;;;;;;;12.23;5.07;;;14.80;99.90;;;;;;5048823;28;20538;-73
2021/11/19 12:22:14;;;;;;;9.30;4.53;;;14.80;99.90;;;;;;5051900;28;20199;-73
2021/11/19 12:24:48;;;;;;;7.22;4.35;;;14.80;99.90;;;;;;5052687;28;20203;-73
2021/11/19 12:27:36;;;;;;;25.63;15.38;;;14.80;99.90;;;;;;5051512;28;20225;-75
2021/11/19 12:30:16;;;;;;;8.80;5.68;;;14.70;99.90;;;;;;5050401;28;20212;-74
2021/11/19 12:32:45;;;;;;;9.40;3.90;;;14.80;99.90;;;;;;5052623;28;20295;-76
2021/11/19 12:35:27;;;;;;;8.07;4.20;;;14.90;99.90;;;;;;5055595;28;20200;-73
2021/11/19 12:38:06;;;;;;;11.90;4.93;;;14.90;99.90;;;;;;5053454;28;20192;-73
2021/11/19 12:40:43;;;;;;;11.48;4.63;;;14.80;99.90;;;;;;5054865;28;20209;-73
2021/11/19 12:43:35;;;;;;;7.57;4.82;;;14.90;99.90;;;;;;5058100;28;20228;-72
2021/11/19 12:46:18;;;;;;;7.75;3.88;;;14.70;99.90;;;;;;5056131;28;20231;-71
2021/11/19 12:49:22;;;;;;;7.43;4.20;;;14.60;99.90;;;;;;5063035;28;20231;-70
2021/11/19 12:51:56;;;;;;;13.10;4.97;;;14.50;99.90;;;;;;5038388;28;20207;-73
2021/11/19 12:54:42;;;;;;;4.32;2.60;;;14.40;99.90;;;;;;5034985;28;20238;-74
2021/11/19 12:57:29;;;;;;;9.30;3.80;;;14.30;99.90;;;;;;5035598;28;20275;-74
2021/11/19 13:00:06;;;;;;;10.25;3.50;;;14.20;99.90;;;;;;5034627;28;20204;-74
2021/11/19 13:02:37;;;;;;;8.40;3.78;;;14.30;99.90;;;;;;5036498;28;20196;-74
2021/11/19 13:05:17;;;;;;;11.50;5.85;;;14.30;99.90;;;;;;5036076;28;20196;-74
2021/11/19 13:08:01;;;;;;;5.85;2.90;;;14.30;99.90;;;;;;5036346;28;20192;-73
2021/11/19 13:10:45;;;;;;;9.65;4.00;;;14.30;99.90;;;;;;5036345;28;20628;-72
2021/11/19 13:13:37;;;;;;;6.85;3.60;;;14.40;99.90;;;;;;5055767;28;20196;-72
2021/11/19 13:16:30;;;;;;;12.68;5.45;;;14.40;99.90;;;;;;5058347;28;20279;-73
2021/11/19 13:19:01;;;;;;;8.75;3.55;;;14.30;99.90;;;;;;5056992;28;20188;-73
2021/11/19 13:21:50;;;;;;;11.43;3.70;;;14.30;99.90;;;;;;5056271;28;20269;-72
2021/11/19 13:24:41;;;;;;;9.38;5.07;;;14.30;99.90;;;;;;5056019;28;20233;-73
2021/11/19 13:27:45;;;;;;;4.93;2.88;;;14.40;99.90;;;;;;5054964;28;20288;-72
2021/11/19 13:30:45;;;;;;;5.25;2.95;;;14.40;99.90;;;;;;5055637;28;20207;-74
2021/11/19 13:33:23;;;;;;;7.20;2.90;;;14.50;99.90;;;;;;5055694;28;20195;-73
2021/11/19 13:36:11;;;;;;;13.23;5.97;;;14.40;99.90;;;;;;5054567;28;20223;-72
2021/11/19 13:39:30;;;;;;;6.28;2.88;;;14.50;99.90;;;;;;5055201;28;20204;-72
2021/11/19 13:42:28;;;;;;;5.93;3.35;;;14.40;99.90;;;;;;5055508;28;20219;-72
2021/11/19 13:45:09;;;;;;;10.82;3.85;;;14.30;99.90;;;;;;5036374;28;20258;-73
2021/11/19 13:47:57;;;;;;;6.40;2.78;;;14.40;99.90;;;;;;5072994;28;20227;-73
2021/11/19 13:50:42;;;;;;;3.60;2.63;;;14.40;99.90;;;;;;5047412;28;20275;-73
2021/11/19 13:53:17;;;;;;;11.10;2.85;;;14.40;99.90;;;;;;5043486;28;20602;-73
2021/11/19 13:55:47;;;;;;;7.63;2.60;;;14.40;99.90;;;;;;5052357;28;20747;-76
2021/11/19 13:58:30;;;;;;;6.35;2.63;;;14.40;99.90;;;;;;5047074;28;20203;-73
2021/11/19 14:01:19;;;;;;;5.72;2.78;;;14.40;99.90;;;;;;5048390;28;20244;-75
2021/11/19 14:03:51;;;;;;;5.40;2.42;;;14.40;99.90;;;;;;5052823;28;20196;-72
2021/11/19 14:06:21;;;;;;;13.35;3.25;;;14.40;99.90;;;;;;5054465;28;20255;-75
2021/11/19 14:08:58;;;;;;;6.13;2.50;;;14.30;99.90;;;;;;5051640;28;20251;-73
2021/11/19 14:11:27;;;;;;;4.47;2.00;;;14.30;99.90;;;;;;5053025;28;20234;-72
2021/11/19 14:13:54;;;;;;;6.88;2.70;;;14.30;99.90;;;;;;5047087;28;20204;-71
2021/11/19 14:16:30;;;;;;;4.25;2.70;;;14.30;99.90;;;;;;5047094;28;20281;-74
2021/11/19 14:19:12;;;;;;;8.98;2.42;;;14.30;99.90;;;;;;5059631;28;20218;-72
2021/11/19 14:21:57;;;;;;;9.13;2.88;;;14.30;99.90;;;;;;5053310;28;20234;-72
2021/11/19 14:24:29;;;;;;;7.80;3.25;;;14.30;99.90;;;;;;5047358;28;20292;-72
2021/11/19 14:27:08;;;;;;;7.70;2.40;;;14.20;99.90;;;;;;5053683;28;20227;-71
2021/11/19 14:29:40;;;;;;;9.90;4.10;;;14.20;99.90;;;;;;5048768;28;20267;-73
2021/11/19 14:32:10;;;;;;;16.58;3.13;;;14.20;99.90;;;;;;5052540;28;20768;-74
2021/11/19 14:34:43;;;;;;;5.45;2.58;;;14.20;99.90;;;;;;5042816;28;20216;-73
2021/11/19 14:37:19;;;;;;;6.65;3.33;;;14.30;99.90;;;;;;5052452;28;20223;-73
2021/11/19 14:39:49;;;;;;;12.45;3.60;;;14.20;99.90;;;;;;5053944;28;20217;-74